sensor_id;sensor_type;location;lat;lon;timestamp;P1;durP1;ratioP1;P2;durP2;ratioP2
32790;SDS011;19143;59.322;14.502;2023-08-08T00:00:14;1.10;;;1.10;;
32790;SDS011;19143;59.322;14.502;2023-08-08T00:02:48;0.93;;;0.93;;
32790;SDS011;19143;59.322;14.502;2023-08-08T00:05:15;1.20;;;1.20;;
32790;SDS011;19143;59.322;14.502;2023-08-08T00:07:41;1.10;;;1.00;;
32790;SDS011;19143;59.322;14.502;2023-08-08T00:10:08;1.00;;;1.00;;
32790;SDS011;19143;59.322;14.502;2023-08-08T00:12:35;1.00;;;1.00;;
32790;SDS011;19143;59.322;14.502;2023-08-08T00:15:02;1.20;;;1.10;;
32790;SDS011;19143;59.322;14.502;2023-08-08T00:17:28;2.60;;;1.00;;
32790;SDS011;19143;59.322;14.502;2023-08-08T00:19:56;1.70;;;1.10;;
32790;SDS011;19143;59.322;14.502;2023-08-08T00:22:23;1.93;;;1.00;;
32790;SDS011;19143;59.322;14.502;2023-08-08T00:24:50;1.37;;;1.13;;
32790;SDS011;19143;59.322;14.502;2023-08-08T00:27:16;1.47;;;0.90;;
32790;SDS011;19143;59.322;14.502;2023-08-08T00:29:43;2.17;;;1.37;;
32790;SDS011;19143;59.322;14.502;2023-08-08T00:32:11;1.70;;;1.07;;
32790;SDS011;19143;59.322;14.502;2023-08-08T00:34:37;1.30;;;1.20;;
32790;SDS011;19143;59.322;14.502;2023-08-08T00:37:05;1.03;;;1.03;;
32790;SDS011;19143;59.322;14.502;2023-08-08T00:39:32;1.43;;;1.10;;
32790;SDS011;19143;59.322;14.502;2023-08-08T00:41:59;3.03;;;1.27;;
32790;SDS011;19143;59.322;14.502;2023-08-08T00:44:27;1.70;;;1.60;;
32790;SDS011;19143;59.322;14.502;2023-08-08T00:46:53;4.17;;;1.40;;
32790;SDS011;19143;59.322;14.502;2023-08-08T00:49:20;1.23;;;1.20;;
32790;SDS011;19143;59.322;14.502;2023-08-08T00:51:47;1.23;;;1.23;;
32790;SDS011;19143;59.322;14.502;2023-08-08T00:54:15;1.53;;;1.30;;
32790;SDS011;19143;59.322;14.502;2023-08-08T00:56:42;1.33;;;1.20;;
32790;SDS011;19143;59.322;14.502;2023-08-08T00:59:08;2.60;;;1.10;;
32790;SDS011;19143;59.322;14.502;2023-08-08T01:01:38;1.33;;;1.27;;
32790;SDS011;19143;59.322;14.502;2023-08-08T01:04:05;1.70;;;1.00;;
32790;SDS011;19143;59.322;14.502;2023-08-08T01:06:33;1.20;;;1.10;;
32790;SDS011;19143;59.322;14.502;2023-08-08T01:09:03;1.20;;;1.20;;
32790;SDS011;19143;59.322;14.502;2023-08-08T01:11:32;1.30;;;1.20;;
32790;SDS011;19143;59.322;14.502;2023-08-08T01:14:00;1.23;;;1.13;;
32790;SDS011;19143;59.322;14.502;2023-08-08T01:16:27;1.90;;;1.27;;
32790;SDS011;19143;59.322;14.502;2023-08-08T01:18:53;1.13;;;1.13;;
32790;SDS011;19143;59.322;14.502;2023-08-08T01:21:22;1.40;;;1.30;;
32790;SDS011;19143;59.322;14.502;2023-08-08T01:23:52;0.97;;;0.97;;
32790;SDS011;19143;59.322;14.502;2023-08-08T01:26:20;1.37;;;1.27;;
32790;SDS011;19143;59.322;14.502;2023-08-08T01:28:47;1.20;;;1.13;;
32790;SDS011;19143;59.322;14.502;2023-08-08T01:31:14;1.03;;;1.03;;
32790;SDS011;19143;59.322;14.502;2023-08-08T01:33:40;3.30;;;1.53;;
32790;SDS011;19143;59.322;14.502;2023-08-08T01:36:10;3.00;;;1.27;;
32790;SDS011;19143;59.322;14.502;2023-08-08T01:38:43;3.23;;;1.57;;
32790;SDS011;19143;59.322;14.502;2023-08-08T01:44:09;1.50;;;1.40;;
32790;SDS011;19143;59.322;14.502;2023-08-08T01:46:39;1.33;;;1.23;;
32790;SDS011;19143;59.322;14.502;2023-08-08T01:49:06;1.33;;;1.23;;
32790;SDS011;19143;59.322;14.502;2023-08-08T01:51:33;4.27;;;1.20;;
32790;SDS011;19143;59.322;14.502;2023-08-08T01:53:59;2.20;;;1.30;;
32790;SDS011;19143;59.322;14.502;2023-08-08T01:56:28;3.33;;;1.40;;
32790;SDS011;19143;59.322;14.502;2023-08-08T01:58:54;1.37;;;1.13;;
32790;SDS011;19143;59.322;14.502;2023-08-08T02:01:23;2.63;;;1.47;;
32790;SDS011;19143;59.322;14.502;2023-08-08T02:03:49;1.53;;;1.30;;
32790;SDS011;19143;59.322;14.502;2023-08-08T02:06:16;1.17;;;1.17;;
32790;SDS011;19143;59.322;14.502;2023-08-08T02:08:43;3.13;;;1.20;;
32790;SDS011;19143;59.322;14.502;2023-08-08T02:11:09;1.17;;;1.17;;
32790;SDS011;19143;59.322;14.502;2023-08-08T02:13:36;2.30;;;1.20;;
32790;SDS011;19143;59.322;14.502;2023-08-08T02:16:03;1.77;;;1.50;;
32790;SDS011;19143;59.322;14.502;2023-08-08T02:18:31;3.43;;;1.30;;
32790;SDS011;19143;59.322;14.502;2023-08-08T02:20:58;1.67;;;1.20;;
32790;SDS011;19143;59.322;14.502;2023-08-08T02:23:24;1.07;;;1.07;;
32790;SDS011;19143;59.322;14.502;2023-08-08T02:25:51;2.67;;;1.10;;
32790;SDS011;19143;59.322;14.502;2023-08-08T02:28:18;3.30;;;1.40;;
32790;SDS011;19143;59.322;14.502;2023-08-08T02:30:45;1.67;;;1.20;;
32790;SDS011;19143;59.322;14.502;2023-08-08T02:33:11;1.73;;;1.20;;
32790;SDS011;19143;59.322;14.502;2023-08-08T02:35:39;1.77;;;1.23;;
32790;SDS011;19143;59.322;14.502;2023-08-08T02:38:06;3.07;;;1.50;;
32790;SDS011;19143;59.322;14.502;2023-08-08T02:40:33;2.23;;;1.30;;
32790;SDS011;19143;59.322;14.502;2023-08-08T02:43:00;1.10;;;1.10;;
32790;SDS011;19143;59.322;14.502;2023-08-08T02:45:26;3.03;;;0.93;;
32790;SDS011;19143;59.322;14.502;2023-08-08T02:47:53;3.43;;;1.50;;
32790;SDS011;19143;59.322;14.502;2023-08-08T02:50:21;2.03;;;1.07;;
32790;SDS011;19143;59.322;14.502;2023-08-08T02:52:49;4.70;;;1.40;;
32790;SDS011;19143;59.322;14.502;2023-08-08T02:55:16;2.63;;;1.30;;
32790;SDS011;19143;59.322;14.502;2023-08-08T02:57:43;1.00;;;1.00;;
32790;SDS011;19143;59.322;14.502;2023-08-08T03:00:10;1.10;;;1.10;;
32790;SDS011;19143;59.322;14.502;2023-08-08T03:02:37;1.60;;;1.50;;
32790;SDS011;19143;59.322;14.502;2023-08-08T03:05:04;5.10;;;1.40;;
32790;SDS011;19143;59.322;14.502;2023-08-08T03:07:30;3.43;;;1.37;;
32790;SDS011;19143;59.322;14.502;2023-08-08T03:09:58;1.80;;;0.90;;
32790;SDS011;19143;59.322;14.502;2023-08-08T03:12:25;1.73;;;1.00;;
32790;SDS011;19143;59.322;14.502;2023-08-08T03:14:52;1.30;;;1.30;;
32790;SDS011;19143;59.322;14.502;2023-08-08T03:17:18;1.67;;;1.57;;
32790;SDS011;19143;59.322;14.502;2023-08-08T03:19:45;2.83;;;1.50;;
32790;SDS011;19143;59.322;14.502;2023-08-08T03:22:11;3.87;;;1.60;;
32790;SDS011;19143;59.322;14.502;2023-08-08T03:24:38;3.03;;;1.97;;
32790;SDS011;19143;59.322;14.502;2023-08-08T03:27:06;2.73;;;2.00;;
32790;SDS011;19143;59.322;14.502;2023-08-08T03:29:33;2.43;;;1.80;;
32790;SDS011;19143;59.322;14.502;2023-08-08T03:31:59;3.87;;;1.70;;
32790;SDS011;19143;59.322;14.502;2023-08-08T03:34:26;4.13;;;1.63;;
32790;SDS011;19143;59.322;14.502;2023-08-08T03:36:53;1.60;;;1.50;;
32790;SDS011;19143;59.322;14.502;2023-08-08T03:39:20;7.23;;;1.90;;
32790;SDS011;19143;59.322;14.502;2023-08-08T03:41:47;5.03;;;1.80;;
32790;SDS011;19143;59.322;14.502;2023-08-08T03:44:15;3.93;;;1.57;;
32790;SDS011;19143;59.322;14.502;2023-08-08T03:46:41;2.83;;;1.60;;
32790;SDS011;19143;59.322;14.502;2023-08-08T03:49:08;2.90;;;1.50;;
32790;SDS011;19143;59.322;14.502;2023-08-08T03:51:35;2.10;;;1.40;;
32790;SDS011;19143;59.322;14.502;2023-08-08T03:54:01;1.50;;;1.40;;
32790;SDS011;19143;59.322;14.502;2023-08-08T03:56:28;2.23;;;1.20;;
32790;SDS011;19143;59.322;14.502;2023-08-08T03:58:55;4.23;;;1.80;;
32790;SDS011;19143;59.322;14.502;2023-08-08T04:01:23;3.70;;;1.53;;
32790;SDS011;19143;59.322;14.502;2023-08-08T04:03:50;2.60;;;1.40;;
32790;SDS011;19143;59.322;14.502;2023-08-08T04:06:17;1.97;;;1.70;;
32790;SDS011;19143;59.322;14.502;2023-08-08T04:08:46;1.83;;;1.73;;
32790;SDS011;19143;59.322;14.502;2023-08-08T04:11:13;2.43;;;1.17;;
32790;SDS011;19143;59.322;14.502;2023-08-08T04:13:40;4.30;;;1.37;;
32790;SDS011;19143;59.322;14.502;2023-08-08T04:16:06;1.40;;;1.30;;
32790;SDS011;19143;59.322;14.502;2023-08-08T04:18:34;4.30;;;1.43;;
32790;SDS011;19143;59.322;14.502;2023-08-08T04:21:01;3.80;;;1.60;;
32790;SDS011;19143;59.322;14.502;2023-08-08T04:23:27;1.37;;;1.30;;
32790;SDS011;19143;59.322;14.502;2023-08-08T04:25:54;1.97;;;1.63;;
32790;SDS011;19143;59.322;14.502;2023-08-08T04:28:21;3.93;;;1.70;;
32790;SDS011;19143;59.322;14.502;2023-08-08T04:30:47;2.97;;;1.40;;
32790;SDS011;19143;59.322;14.502;2023-08-08T04:33:14;1.90;;;1.20;;
32790;SDS011;19143;59.322;14.502;2023-08-08T04:35:42;2.60;;;1.40;;
32790;SDS011;19143;59.322;14.502;2023-08-08T04:38:09;1.60;;;1.30;;
32790;SDS011;19143;59.322;14.502;2023-08-08T04:40:35;3.20;;;1.30;;
32790;SDS011;19143;59.322;14.502;2023-08-08T04:43:02;5.00;;;1.60;;
32790;SDS011;19143;59.322;14.502;2023-08-08T04:45:28;1.83;;;1.40;;
32790;SDS011;19143;59.322;14.502;2023-08-08T04:47:55;2.63;;;1.40;;
32790;SDS011;19143;59.322;14.502;2023-08-08T04:50:22;2.57;;;1.40;;
32790;SDS011;19143;59.322;14.502;2023-08-08T04:52:50;6.27;;;1.50;;
32790;SDS011;19143;59.322;14.502;2023-08-08T04:55:17;3.43;;;1.47;;
32790;SDS011;19143;59.322;14.502;2023-08-08T04:57:44;3.13;;;1.47;;
32790;SDS011;19143;59.322;14.502;2023-08-08T05:00:11;2.10;;;1.40;;
32790;SDS011;19143;59.322;14.502;2023-08-08T05:02:38;2.87;;;1.40;;
32790;SDS011;19143;59.322;14.502;2023-08-08T05:05:06;2.13;;;1.50;;
32790;SDS011;19143;59.322;14.502;2023-08-08T05:07:34;3.17;;;1.20;;
32790;SDS011;19143;59.322;14.502;2023-08-08T05:10:04;3.50;;;1.13;;
32790;SDS011;19143;59.322;14.502;2023-08-08T05:12:31;1.50;;;1.40;;
32790;SDS011;19143;59.322;14.502;2023-08-08T05:14:58;4.13;;;1.63;;
32790;SDS011;19143;59.322;14.502;2023-08-08T05:17:26;2.03;;;1.40;;
32790;SDS011;19143;59.322;14.502;2023-08-08T05:19:52;1.40;;;1.30;;
32790;SDS011;19143;59.322;14.502;2023-08-08T05:22:19;1.50;;;1.20;;
32790;SDS011;19143;59.322;14.502;2023-08-08T05:24:45;1.20;;;1.10;;
32790;SDS011;19143;59.322;14.502;2023-08-08T05:27:13;1.60;;;1.30;;
32790;SDS011;19143;59.322;14.502;2023-08-08T05:29:40;3.90;;;1.43;;
32790;SDS011;19143;59.322;14.502;2023-08-08T05:32:07;1.43;;;1.30;;
32790;SDS011;19143;59.322;14.502;2023-08-08T05:34:34;1.57;;;1.20;;
32790;SDS011;19143;59.322;14.502;2023-08-08T05:37:00;1.43;;;1.23;;
32790;SDS011;19143;59.322;14.502;2023-08-08T05:39:27;1.20;;;1.13;;
32790;SDS011;19143;59.322;14.502;2023-08-08T05:41:54;1.60;;;1.10;;
32790;SDS011;19143;59.322;14.502;2023-08-08T05:44:23;2.50;;;1.40;;
32790;SDS011;19143;59.322;14.502;2023-08-08T05:46:49;4.23;;;1.10;;
32790;SDS011;19143;59.322;14.502;2023-08-08T05:49:16;3.40;;;1.77;;
32790;SDS011;19143;59.322;14.502;2023-08-08T05:51:42;1.70;;;1.60;;
32790;SDS011;19143;59.322;14.502;2023-08-08T05:54:09;1.00;;;1.00;;
32790;SDS011;19143;59.322;14.502;2023-08-08T05:56:36;6.73;;;1.63;;
32790;SDS011;19143;59.322;14.502;2023-08-08T05:59:03;5.50;;;1.10;;
32790;SDS011;19143;59.322;14.502;2023-08-08T06:01:32;1.10;;;1.00;;
32790;SDS011;19143;59.322;14.502;2023-08-08T06:03:59;0.90;;;0.90;;
32790;SDS011;19143;59.322;14.502;2023-08-08T06:06:25;3.40;;;1.10;;
32790;SDS011;19143;59.322;14.502;2023-08-08T06:08:52;1.03;;;1.03;;
32790;SDS011;19143;59.322;14.502;2023-08-08T06:11:19;1.00;;;0.90;;
32790;SDS011;19143;59.322;14.502;2023-08-08T06:13:46;1.70;;;1.50;;
32790;SDS011;19143;59.322;14.502;2023-08-08T06:16:12;3.27;;;1.00;;
32790;SDS011;19143;59.322;14.502;2023-08-08T06:18:41;2.63;;;0.80;;
32790;SDS011;19143;59.322;14.502;2023-08-08T06:21:08;1.67;;;0.90;;
32790;SDS011;19143;59.322;14.502;2023-08-08T06:23:34;0.87;;;0.87;;
32790;SDS011;19143;59.322;14.502;2023-08-08T06:26:01;4.87;;;1.07;;
32790;SDS011;19143;59.322;14.502;2023-08-08T06:28:28;1.00;;;1.00;;
32790;SDS011;19143;59.322;14.502;2023-08-08T06:30:56;3.53;;;1.10;;
32790;SDS011;19143;59.322;14.502;2023-08-08T06:33:23;1.10;;;1.00;;
32790;SDS011;19143;59.322;14.502;2023-08-08T06:35:51;1.07;;;0.80;;
32790;SDS011;19143;59.322;14.502;2023-08-08T06:38:18;1.23;;;1.13;;
32790;SDS011;19143;59.322;14.502;2023-08-08T06:40:51;0.83;;;0.83;;
32790;SDS011;19143;59.322;14.502;2023-08-08T06:43:17;2.23;;;0.80;;
32790;SDS011;19143;59.322;14.502;2023-08-08T06:45:47;0.80;;;0.80;;
32790;SDS011;19143;59.322;14.502;2023-08-08T06:48:14;1.60;;;0.70;;
32790;SDS011;19143;59.322;14.502;2023-08-08T06:50:40;1.03;;;0.50;;
32790;SDS011;19143;59.322;14.502;2023-08-08T06:53:08;1.60;;;0.83;;
32790;SDS011;19143;59.322;14.502;2023-08-08T06:55:35;0.93;;;0.80;;
32790;SDS011;19143;59.322;14.502;2023-08-08T06:58:02;1.70;;;1.20;;
32790;SDS011;19143;59.322;14.502;2023-08-08T07:00:29;1.57;;;1.10;;
32790;SDS011;19143;59.322;14.502;2023-08-08T07:02:55;1.17;;;1.07;;
32790;SDS011;19143;59.322;14.502;2023-08-08T07:05:22;1.10;;;1.10;;
32790;SDS011;19143;59.322;14.502;2023-08-08T07:07:49;1.10;;;1.00;;
32790;SDS011;19143;59.322;14.502;2023-08-08T07:10:17;1.00;;;0.90;;
32790;SDS011;19143;59.322;14.502;2023-08-08T07:12:44;1.57;;;1.10;;
32790;SDS011;19143;59.322;14.502;2023-08-08T07:15:10;1.00;;;1.00;;
32790;SDS011;19143;59.322;14.502;2023-08-08T07:17:37;1.03;;;1.03;;
32790;SDS011;19143;59.322;14.502;2023-08-08T07:20:04;5.60;;;1.20;;
32790;SDS011;19143;59.322;14.502;2023-08-08T07:22:31;1.00;;;0.87;;
32790;SDS011;19143;59.322;14.502;2023-08-08T07:24:58;0.80;;;0.80;;
32790;SDS011;19143;59.322;14.502;2023-08-08T07:27:27;1.37;;;1.03;;
32790;SDS011;19143;59.322;14.502;2023-08-08T07:29:53;0.97;;;0.90;;
32790;SDS011;19143;59.322;14.502;2023-08-08T07:32:20;2.23;;;1.20;;
32790;SDS011;19143;59.322;14.502;2023-08-08T07:34:46;1.10;;;1.10;;
32790;SDS011;19143;59.322;14.502;2023-08-08T07:37:13;1.00;;;1.00;;
32790;SDS011;19143;59.322;14.502;2023-08-08T07:39:40;1.30;;;1.20;;
32790;SDS011;19143;59.322;14.502;2023-08-08T07:42:07;1.10;;;1.10;;
32790;SDS011;19143;59.322;14.502;2023-08-08T07:44:35;1.37;;;1.30;;
32790;SDS011;19143;59.322;14.502;2023-08-08T07:47:03;0.87;;;0.87;;
32790;SDS011;19143;59.322;14.502;2023-08-08T07:49:30;1.50;;;1.40;;
32790;SDS011;19143;59.322;14.502;2023-08-08T07:51:56;1.60;;;1.33;;
32790;SDS011;19143;59.322;14.502;2023-08-08T07:54:23;0.83;;;0.83;;
32790;SDS011;19143;59.322;14.502;2023-08-08T07:56:50;0.90;;;0.90;;
32790;SDS011;19143;59.322;14.502;2023-08-08T07:59:17;0.73;;;0.73;;
32790;SDS011;19143;59.322;14.502;2023-08-08T08:01:45;1.17;;;0.90;;
32790;SDS011;19143;59.322;14.502;2023-08-08T08:04:11;1.20;;;1.20;;
32790;SDS011;19143;59.322;14.502;2023-08-08T08:06:38;1.30;;;1.30;;
32790;SDS011;19143;59.322;14.502;2023-08-08T08:09:05;1.00;;;1.00;;
32790;SDS011;19143;59.322;14.502;2023-08-08T08:11:31;1.00;;;1.00;;
32790;SDS011;19143;59.322;14.502;2023-08-08T08:13:58;1.00;;;0.80;;
32790;SDS011;19143;59.322;14.502;2023-08-08T08:16:24;0.80;;;0.80;;
32790;SDS011;19143;59.322;14.502;2023-08-08T08:18:53;0.73;;;0.73;;
32790;SDS011;19143;59.322;14.502;2023-08-08T08:21:26;0.67;;;0.67;;
32790;SDS011;19143;59.322;14.502;2023-08-08T08:23:53;0.90;;;0.90;;
32790;SDS011;19143;59.322;14.502;2023-08-08T08:26:19;3.60;;;1.60;;
32790;SDS011;19143;59.322;14.502;2023-08-08T08:28:46;8.03;;;5.63;;
32790;SDS011;19143;59.322;14.502;2023-08-08T08:31:13;2.43;;;2.23;;
32790;SDS011;19143;59.322;14.502;2023-08-08T08:33:39;1.70;;;1.70;;
32790;SDS011;19143;59.322;14.502;2023-08-08T08:36:07;1.37;;;1.37;;
32790;SDS011;19143;59.322;14.502;2023-08-08T08:38:34;1.10;;;1.10;;
32790;SDS011;19143;59.322;14.502;2023-08-08T08:41:01;1.27;;;0.90;;
32790;SDS011;19143;59.322;14.502;2023-08-08T08:43:28;0.97;;;0.97;;
32790;SDS011;19143;59.322;14.502;2023-08-08T08:45:56;0.90;;;0.90;;
32790;SDS011;19143;59.322;14.502;2023-08-08T08:48:24;3.30;;;0.73;;
32790;SDS011;19143;59.322;14.502;2023-08-08T08:50:50;0.80;;;0.80;;
32790;SDS011;19143;59.322;14.502;2023-08-08T08:53:18;0.80;;;0.80;;
32790;SDS011;19143;59.322;14.502;2023-08-08T08:55:45;1.63;;;1.53;;
32790;SDS011;19143;59.322;14.502;2023-08-08T08:58:13;1.20;;;1.20;;
32790;SDS011;19143;59.322;14.502;2023-08-08T09:00:40;3.30;;;3.10;;
32790;SDS011;19143;59.322;14.502;2023-08-08T09:03:07;1.10;;;1.10;;
32790;SDS011;19143;59.322;14.502;2023-08-08T09:05:33;1.10;;;1.10;;
32790;SDS011;19143;59.322;14.502;2023-08-08T09:08:00;1.50;;;1.50;;
32790;SDS011;19143;59.322;14.502;2023-08-08T09:10:28;1.20;;;1.20;;
32790;SDS011;19143;59.322;14.502;2023-08-08T09:12:57;1.37;;;1.20;;
32790;SDS011;19143;59.322;14.502;2023-08-08T09:15:23;1.60;;;1.60;;
32790;SDS011;19143;59.322;14.502;2023-08-08T09:17:50;1.80;;;1.00;;
32790;SDS011;19143;59.322;14.502;2023-08-08T09:20:17;0.57;;;0.57;;
32790;SDS011;19143;59.322;14.502;2023-08-08T09:22:44;0.63;;;0.50;;
32790;SDS011;19143;59.322;14.502;2023-08-08T09:25:11;0.50;;;0.50;;
32790;SDS011;19143;59.322;14.502;2023-08-08T09:27:40;0.50;;;0.50;;
32790;SDS011;19143;59.322;14.502;2023-08-08T09:30:08;0.50;;;0.50;;
32790;SDS011;19143;59.322;14.502;2023-08-08T09:32:35;1.13;;;0.70;;
32790;SDS011;19143;59.322;14.502;2023-08-08T09:35:02;0.50;;;0.50;;
32790;SDS011;19143;59.322;14.502;2023-08-08T09:37:30;2.63;;;0.50;;
32790;SDS011;19143;59.322;14.502;2023-08-08T09:39:57;0.10;;;0.10;;
32790;SDS011;19143;59.322;14.502;2023-08-08T09:42:25;0.20;;;0.20;;
32790;SDS011;19143;59.322;14.502;2023-08-08T09:44:53;0.30;;;0.30;;
32790;SDS011;19143;59.322;14.502;2023-08-08T09:47:21;1.70;;;1.70;;
32790;SDS011;19143;59.322;14.502;2023-08-08T09:49:48;0.27;;;0.27;;
32790;SDS011;19143;59.322;14.502;2023-08-08T09:52:14;0.10;;;0.10;;
32790;SDS011;19143;59.322;14.502;2023-08-08T09:54:41;1.20;;;0.30;;
32790;SDS011;19143;59.322;14.502;2023-08-08T09:57:08;0.20;;;0.20;;
32790;SDS011;19143;59.322;14.502;2023-08-08T09:59:35;0.40;;;0.40;;
32790;SDS011;19143;59.322;14.502;2023-08-08T10:02:03;0.30;;;0.30;;
32790;SDS011;19143;59.322;14.502;2023-08-08T10:04:31;0.40;;;0.40;;
32790;SDS011;19143;59.322;14.502;2023-08-08T10:06:58;0.30;;;0.30;;
32790;SDS011;19143;59.322;14.502;2023-08-08T10:09:25;0.30;;;0.30;;
32790;SDS011;19143;59.322;14.502;2023-08-08T10:11:51;0.20;;;0.20;;
32790;SDS011;19143;59.322;14.502;2023-08-08T10:14:19;0.30;;;0.30;;
32790;SDS011;19143;59.322;14.502;2023-08-08T10:16:46;1.10;;;0.30;;
32790;SDS011;19143;59.322;14.502;2023-08-08T10:19:20;0.37;;;0.37;;
32790;SDS011;19143;59.322;14.502;2023-08-08T10:21:47;0.40;;;0.40;;
32790;SDS011;19143;59.322;14.502;2023-08-08T10:24:14;0.47;;;0.47;;
32790;SDS011;19143;59.322;14.502;2023-08-08T10:26:52;0.40;;;0.40;;
32790;SDS011;19143;59.322;14.502;2023-08-08T10:29:20;0.50;;;0.50;;
32790;SDS011;19143;59.322;14.502;2023-08-08T10:31:51;0.63;;;0.63;;
32790;SDS011;19143;59.322;14.502;2023-08-08T10:34:19;0.87;;;0.70;;
32790;SDS011;19143;59.322;14.502;2023-08-08T10:36:49;2.60;;;0.70;;
32790;SDS011;19143;59.322;14.502;2023-08-08T10:39:17;0.70;;;0.70;;
32790;SDS011;19143;59.322;14.502;2023-08-08T10:41:45;5.00;;;0.90;;
32790;SDS011;19143;59.322;14.502;2023-08-08T10:44:11;2.33;;;0.90;;
32790;SDS011;19143;59.322;14.502;2023-08-08T10:46:40;0.90;;;0.90;;
32790;SDS011;19143;59.322;14.502;2023-08-08T10:49:07;1.00;;;1.00;;
32790;SDS011;19143;59.322;14.502;2023-08-08T10:51:37;1.10;;;1.10;;
32790;SDS011;19143;59.322;14.502;2023-08-08T10:54:04;0.83;;;0.83;;
32790;SDS011;19143;59.322;14.502;2023-08-08T10:56:39;1.10;;;1.10;;
32790;SDS011;19143;59.322;14.502;2023-08-08T10:59:13;1.87;;;1.20;;
32790;SDS011;19143;59.322;14.502;2023-08-08T11:01:40;1.10;;;1.10;;
32790;SDS011;19143;59.322;14.502;2023-08-08T11:04:07;1.03;;;1.03;;
32790;SDS011;19143;59.322;14.502;2023-08-08T11:06:34;1.00;;;1.00;;
32790;SDS011;19143;59.322;14.502;2023-08-08T11:09:05;1.13;;;1.10;;
32790;SDS011;19143;59.322;14.502;2023-08-08T11:11:35;2.57;;;1.00;;
32790;SDS011;19143;59.322;14.502;2023-08-08T11:14:08;1.17;;;1.10;;
32790;SDS011;19143;59.322;14.502;2023-08-08T11:16:34;1.40;;;1.23;;
32790;SDS011;19143;59.322;14.502;2023-08-08T11:19:01;1.17;;;1.10;;
32790;SDS011;19143;59.322;14.502;2023-08-08T11:21:28;1.23;;;1.10;;
32790;SDS011;19143;59.322;14.502;2023-08-08T11:23:54;1.00;;;1.00;;
32790;SDS011;19143;59.322;14.502;2023-08-08T11:26:23;1.07;;;1.07;;
32790;SDS011;19143;59.322;14.502;2023-08-08T11:28:52;1.00;;;1.00;;
32790;SDS011;19143;59.322;14.502;2023-08-08T11:31:19;1.07;;;1.07;;
32790;SDS011;19143;59.322;14.502;2023-08-08T11:33:46;1.27;;;1.07;;
32790;SDS011;19143;59.322;14.502;2023-08-08T11:36:13;0.93;;;0.93;;
32790;SDS011;19143;59.322;14.502;2023-08-08T11:38:40;0.90;;;0.90;;
32790;SDS011;19143;59.322;14.502;2023-08-08T11:41:15;1.00;;;1.00;;
32790;SDS011;19143;59.322;14.502;2023-08-08T11:43:50;3.10;;;0.93;;
32790;SDS011;19143;59.322;14.502;2023-08-08T11:46:17;0.80;;;0.80;;
32790;SDS011;19143;59.322;14.502;2023-08-08T11:48:46;0.90;;;0.90;;
32790;SDS011;19143;59.322;14.502;2023-08-08T11:51:13;1.00;;;1.00;;
32790;SDS011;19143;59.322;14.502;2023-08-08T11:53:47;0.90;;;0.90;;
32790;SDS011;19143;59.322;14.502;2023-08-08T11:56:14;1.17;;;1.13;;
32790;SDS011;19143;59.322;14.502;2023-08-08T11:58:41;1.03;;;1.03;;
32790;SDS011;19143;59.322;14.502;2023-08-08T12:01:09;1.43;;;1.40;;
32790;SDS011;19143;59.322;14.502;2023-08-08T12:03:39;4.60;;;0.90;;
32790;SDS011;19143;59.322;14.502;2023-08-08T12:06:10;1.00;;;1.00;;
32790;SDS011;19143;59.322;14.502;2023-08-08T12:08:37;0.90;;;0.90;;
32790;SDS011;19143;59.322;14.502;2023-08-08T12:11:04;1.10;;;1.10;;
32790;SDS011;19143;59.322;14.502;2023-08-08T12:13:31;6.53;;;1.10;;
32790;SDS011;19143;59.322;14.502;2023-08-08T12:16:00;3.13;;;1.00;;
32790;SDS011;19143;59.322;14.502;2023-08-08T12:18:28;1.00;;;1.00;;
32790;SDS011;19143;59.322;14.502;2023-08-08T12:20:55;1.20;;;1.20;;
32790;SDS011;19143;59.322;14.502;2023-08-08T12:23:22;0.87;;;0.87;;
32790;SDS011;19143;59.322;14.502;2023-08-08T12:25:49;0.83;;;0.83;;
32790;SDS011;19143;59.322;14.502;2023-08-08T12:28:16;1.00;;;1.00;;
32790;SDS011;19143;59.322;14.502;2023-08-08T12:30:42;1.03;;;1.03;;
32790;SDS011;19143;59.322;14.502;2023-08-08T12:33:09;1.00;;;1.00;;
32790;SDS011;19143;59.322;14.502;2023-08-08T12:35:37;0.87;;;0.87;;
32790;SDS011;19143;59.322;14.502;2023-08-08T12:38:04;0.90;;;0.90;;
32790;SDS011;19143;59.322;14.502;2023-08-08T12:40:31;0.80;;;0.80;;
32790;SDS011;19143;59.322;14.502;2023-08-08T12:42:59;0.90;;;0.90;;
32790;SDS011;19143;59.322;14.502;2023-08-08T12:45:25;1.00;;;1.00;;
32790;SDS011;19143;59.322;14.502;2023-08-08T12:47:52;1.80;;;1.00;;
32790;SDS011;19143;59.322;14.502;2023-08-08T12:50:18;1.60;;;0.77;;
32790;SDS011;19143;59.322;14.502;2023-08-08T12:52:46;0.87;;;0.70;;
32790;SDS011;19143;59.322;14.502;2023-08-08T12:55:13;0.90;;;0.90;;
32790;SDS011;19143;59.322;14.502;2023-08-08T12:57:42;0.70;;;0.70;;
32790;SDS011;19143;59.322;14.502;2023-08-08T13:00:09;1.03;;;0.70;;
32790;SDS011;19143;59.322;14.502;2023-08-08T13:02:37;0.67;;;0.67;;
32790;SDS011;19143;59.322;14.502;2023-08-08T13:05:04;0.90;;;0.90;;
32790;SDS011;19143;59.322;14.502;2023-08-08T13:07:32;0.77;;;0.77;;
32790;SDS011;19143;59.322;14.502;2023-08-08T13:10:00;1.93;;;1.10;;
32790;SDS011;19143;59.322;14.502;2023-08-08T13:12:27;0.80;;;0.80;;
32790;SDS011;19143;59.322;14.502;2023-08-08T13:14:53;2.30;;;0.97;;
32790;SDS011;19143;59.322;14.502;2023-08-08T13:17:21;0.67;;;0.60;;
32790;SDS011;19143;59.322;14.502;2023-08-08T13:19:47;3.50;;;0.80;;
32790;SDS011;19143;59.322;14.502;2023-08-08T13:22:14;0.60;;;0.60;;
32790;SDS011;19143;59.322;14.502;2023-08-08T13:24:40;0.60;;;0.60;;
32790;SDS011;19143;59.322;14.502;2023-08-08T13:27:08;0.50;;;0.50;;
32790;SDS011;19143;59.322;14.502;2023-08-08T13:29:36;0.93;;;0.60;;
32790;SDS011;19143;59.322;14.502;2023-08-08T13:32:03;0.50;;;0.50;;
32790;SDS011;19143;59.322;14.502;2023-08-08T13:34:29;0.67;;;0.60;;
32790;SDS011;19143;59.322;14.502;2023-08-08T13:36:56;2.43;;;0.70;;
32790;SDS011;19143;59.322;14.502;2023-08-08T13:39:23;1.73;;;0.80;;
32790;SDS011;19143;59.322;14.502;2023-08-08T13:41:50;0.50;;;0.50;;
32790;SDS011;19143;59.322;14.502;2023-08-08T13:44:18;0.70;;;0.70;;
32790;SDS011;19143;59.322;14.502;2023-08-08T13:46:44;4.17;;;0.70;;
32790;SDS011;19143;59.322;14.502;2023-08-08T13:49:11;0.47;;;0.47;;
32790;SDS011;19143;59.322;14.502;2023-08-08T13:51:37;0.97;;;0.77;;
32790;SDS011;19143;59.322;14.502;2023-08-08T13:54:04;0.67;;;0.60;;
32790;SDS011;19143;59.322;14.502;2023-08-08T13:56:31;0.60;;;0.60;;
32790;SDS011;19143;59.322;14.502;2023-08-08T13:58:57;0.60;;;0.60;;
32790;SDS011;19143;59.322;14.502;2023-08-08T14:01:25;0.50;;;0.50;;
32790;SDS011;19143;59.322;14.502;2023-08-08T14:03:52;3.60;;;0.50;;
32790;SDS011;19143;59.322;14.502;2023-08-08T14:06:19;0.70;;;0.70;;
32790;SDS011;19143;59.322;14.502;2023-08-08T14:08:45;0.70;;;0.70;;
32790;SDS011;19143;59.322;14.502;2023-08-08T14:11:13;3.50;;;0.70;;
32790;SDS011;19143;59.322;14.502;2023-08-08T14:13:39;1.37;;;0.70;;
32790;SDS011;19143;59.322;14.502;2023-08-08T14:16:06;0.93;;;0.67;;
32790;SDS011;19143;59.322;14.502;2023-08-08T14:18:34;1.07;;;0.60;;
32790;SDS011;19143;59.322;14.502;2023-08-08T14:21:01;0.60;;;0.60;;
32790;SDS011;19143;59.322;14.502;2023-08-08T14:23:29;0.97;;;0.60;;
32790;SDS011;19143;59.322;14.502;2023-08-08T14:25:56;2.03;;;0.43;;
32790;SDS011;19143;59.322;14.502;2023-08-08T14:28:22;0.50;;;0.50;;
32790;SDS011;19143;59.322;14.502;2023-08-08T14:30:49;0.87;;;0.70;;
32790;SDS011;19143;59.322;14.502;2023-08-08T14:33:16;4.73;;;0.90;;
32790;SDS011;19143;59.322;14.502;2023-08-08T14:35:44;0.53;;;0.53;;